createdAt,value
2016-09-28T00:00:03.973Z,15.7
2016-09-28T00:00:13.967Z,15.7
2016-09-28T00:00:23.962Z,15.6
2016-09-28T00:00:33.957Z,15.7
2016-09-28T00:00:43.953Z,15.7
2016-09-28T00:00:53.948Z,15.7
2016-09-28T00:01:03.941Z,15.7
2016-09-28T00:01:13.938Z,15.6
2016-09-28T00:01:23.932Z,15.6
2016-09-28T00:01:33.926Z,15.5
2016-09-28T00:01:43.921Z,15.6
2016-09-28T00:01:53.917Z,15.5
2016-09-28T00:02:03.911Z,15.6
2016-09-28T00:02:13.908Z,15.6
2016-09-28T00:02:23.903Z,15.6
2016-09-28T00:02:33.898Z,15.7
2016-09-28T00:02:43.893Z,15.6
2016-09-28T00:02:53.886Z,15.7
2016-09-28T00:03:03.883Z,15.6
2016-09-28T00:03:13.876Z,15.6
2016-09-28T00:03:23.870Z,15.7
2016-09-28T00:03:33.867Z,15.6
2016-09-28T00:03:43.860Z,15.6
2016-09-28T00:03:53.856Z,15.6
2016-09-28T00:04:03.851Z,15.7
2016-09-28T00:04:13.846Z,15.5
2016-09-28T00:04:23.843Z,15.6
2016-09-28T00:04:33.836Z,15.5
2016-09-28T00:04:43.830Z,15.5
2016-09-28T00:04:53.826Z,15.5
2016-09-28T00:05:03.822Z,15.5
2016-09-28T00:05:13.817Z,15.6
2016-09-28T00:05:23.813Z,15.5
2016-09-28T00:05:33.808Z,15.6
2016-09-28T00:05:43.803Z,15.5
2016-09-28T00:05:53.796Z,15.6
2016-09-28T00:06:03.793Z,15.5
2016-09-28T00:06:13.787Z,15.5
2016-09-28T00:06:23.781Z,15.5
2016-09-28T00:06:33.776Z,15.5
2016-09-28T00:06:43.771Z,15.5
2016-09-28T00:06:53.771Z,15.5
2016-09-28T00:07:03.762Z,15.4
2016-09-28T00:07:13.757Z,15.4
2016-09-28T00:07:23.751Z,15.5
2016-09-28T00:07:33.746Z,15.5
2016-09-28T00:07:43.741Z,15.5
2016-09-28T00:07:53.737Z,15.5
2016-09-28T00:08:03.732Z,15.5
2016-09-28T00:08:13.727Z,15.5
2016-09-28T00:08:23.732Z,15.4
2016-09-28T00:08:33.716Z,15.5
2016-09-28T00:08:43.712Z,15.4
2016-09-28T00:08:53.707Z,15.5
2016-09-28T00:09:03.700Z,15.4
2016-09-28T00:09:13.696Z,15.4
2016-09-28T00:09:23.690Z,15.4
2016-09-28T00:09:33.685Z,15.4
2016-09-28T00:09:43.681Z,15.4
2016-09-28T00:09:53.675Z,15.4
2016-09-28T00:10:03.671Z,15.4
2016-09-28T00:10:13.666Z,15.4
2016-09-28T00:10:23.662Z,15.4
2016-09-28T00:10:33.656Z,15.4
2016-09-28T00:10:43.652Z,15.4
2016-09-28T00:10:53.646Z,15.4
2016-09-28T00:11:03.641Z,15.4
2016-09-28T00:11:13.634Z,15.4
2016-09-28T00:11:23.632Z,15.4
2016-09-28T00:11:33.625Z,15.4
2016-09-28T00:11:43.619Z,15.4
2016-09-28T00:11:53.617Z,15.4
2016-09-28T00:12:03.611Z,15.4
2016-09-28T00:12:13.605Z,15.4
2016-09-28T00:12:23.600Z,15.4
2016-09-28T00:12:33.594Z,15.4
2016-09-28T00:12:43.590Z,15.4
2016-09-28T00:12:53.585Z,15.4
2016-09-28T00:13:03.581Z,15.4
2016-09-28T00:13:13.577Z,15.4
2016-09-28T00:13:23.572Z,15.5
2016-09-28T00:13:33.565Z,15.6
2016-09-28T00:13:43.562Z,15.5
2016-09-28T00:13:53.556Z,15.5
2016-09-28T00:14:03.551Z,15.5
2016-09-28T00:14:13.546Z,15.6
2016-09-28T00:14:23.540Z,15.5
2016-09-28T00:14:33.535Z,15.5
2016-09-28T00:14:43.530Z,15.5
2016-09-28T00:14:53.524Z,15.4
2016-09-28T00:15:03.521Z,15.4
2016-09-28T00:15:13.514Z,15.4
2016-09-28T00:15:23.511Z,15.4
2016-09-28T00:15:33.506Z,15.3
2016-09-28T00:15:43.501Z,15.4
2016-09-28T00:15:53.496Z,15.4
2016-09-28T00:16:03.494Z,15.4
2016-09-28T00:16:13.486Z,15.4
2016-09-28T00:16:23.481Z,15.4
2016-09-28T00:16:33.475Z,15.4
2016-09-28T00:16:43.471Z,15.4
2016-09-28T00:16:53.465Z,15.4
2016-09-28T00:17:03.459Z,15.4
2016-09-28T00:17:13.454Z,15.4
2016-09-28T00:17:23.451Z,15.4
2016-09-28T00:17:33.443Z,15.3
2016-09-28T00:17:43.439Z,15.4
2016-09-28T00:17:53.439Z,15.4
2016-09-28T00:18:03.429Z,15.4
2016-09-28T00:18:13.426Z,15.3
2016-09-28T00:18:23.420Z,15.4
2016-09-28T00:18:33.415Z,15.4
2016-09-28T00:18:43.410Z,15.3
2016-09-28T00:18:53.405Z,15.5
2016-09-28T00:19:03.400Z,15.4
2016-09-28T00:19:13.394Z,15.4
2016-09-28T00:19:23.390Z,15.4
2016-09-28T00:19:33.386Z,15.4
2016-09-28T00:19:43.378Z,15.5
2016-09-28T00:19:53.374Z,15.4
2016-09-28T00:20:03.370Z,15.5
2016-09-28T00:20:13.365Z,15.5
2016-09-28T00:20:23.359Z,15.5
2016-09-28T00:20:33.354Z,15.5
2016-09-28T00:20:43.348Z,15.4
2016-09-28T00:20:53.343Z,15.5
2016-09-28T00:21:03.340Z,15.5
2016-09-28T00:21:13.333Z,15.5
2016-09-28T00:21:23.331Z,15.5
2016-09-28T00:21:33.325Z,15.5
2016-09-28T00:21:43.320Z,15.5
2016-09-28T00:21:53.314Z,15.4
2016-09-28T00:22:03.309Z,15.4
2016-09-28T00:22:13.304Z,15.5
2016-09-28T00:22:23.298Z,15.4
2016-09-28T00:22:33.294Z,15.4
2016-09-28T00:22:43.290Z,15.4
2016-09-28T00:22:53.284Z,15.4
2016-09-28T00:23:03.279Z,15.5
2016-09-28T00:23:13.278Z,15.5
2016-09-28T00:23:23.270Z,15.5
2016-09-28T00:23:33.263Z,15.5
2016-09-28T00:23:43.259Z,15.4
2016-09-28T00:23:53.254Z,15.4
2016-09-28T00:24:03.250Z,15.4
2016-09-28T00:24:13.244Z,15.4
2016-09-28T00:24:23.238Z,15.5
2016-09-28T00:24:33.234Z,15.4
2016-09-28T00:24:43.229Z,15.5
2016-09-28T00:24:53.224Z,15.5
2016-09-28T00:25:03.218Z,15.5
2016-09-28T00:25:13.213Z,15.5
2016-09-28T00:25:23.210Z,15.6
2016-09-28T00:25:33.202Z,15.6
2016-09-28T00:25:43.199Z,15.6
2016-09-28T00:25:53.193Z,15.5
2016-09-28T00:26:03.188Z,15.6
2016-09-28T00:26:13.183Z,15.6
2016-09-28T00:26:23.179Z,15.5
2016-09-28T00:26:33.174Z,15.6
2016-09-28T00:26:43.169Z,15.6
2016-09-28T00:26:53.164Z,15.6
2016-09-28T00:27:03.159Z,15.5
2016-09-28T00:27:13.153Z,15.5
2016-09-28T00:27:23.153Z,15.6
2016-09-28T00:27:33.145Z,15.6
2016-09-28T00:27:43.138Z,15.6
2016-09-28T00:27:53.135Z,15.5
2016-09-28T00:28:03.128Z,15.6
2016-09-28T00:28:13.123Z,15.5
2016-09-28T00:28:23.119Z,15.6
2016-09-28T00:28:33.114Z,15.7
2016-09-28T00:28:43.107Z,15.7
2016-09-28T00:28:53.102Z,15.5
2016-09-28T00:29:03.098Z,15.5
2016-09-28T00:29:13.094Z,15.7
2016-09-28T00:29:23.090Z,15.6
2016-09-28T00:29:33.084Z,15.6
2016-09-28T00:29:43.079Z,15.7
2016-09-28T00:29:53.073Z,15.7
2016-09-28T00:30:03.068Z,15.7
2016-09-28T00:30:13.062Z,15.7
2016-09-28T00:30:23.056Z,15.7
2016-09-28T00:30:33.052Z,15.7
2016-09-28T00:30:43.047Z,15.7
2016-09-28T00:30:53.043Z,15.7
2016-09-28T00:31:03.038Z,15.7
2016-09-28T00:31:13.032Z,15.7
2016-09-28T00:31:23.027Z,15.7
2016-09-28T00:31:33.022Z,15.7
2016-09-28T00:31:43.017Z,15.7
2016-09-28T00:31:53.013Z,15.6
2016-09-28T00:32:03.016Z,15.7
2016-09-28T00:32:13.003Z,15.7
2016-09-28T00:32:22.999Z,15.7
2016-09-28T00:32:32.993Z,15.7
2016-09-28T00:32:42.988Z,15.7
2016-09-28T00:32:52.983Z,15.7
2016-09-28T00:33:02.978Z,15.7
2016-09-28T00:33:12.971Z,15.7
2016-09-28T00:33:22.968Z,15.7
2016-09-28T00:33:32.961Z,15.7
2016-09-28T00:33:42.958Z,15.8
2016-09-28T00:33:52.952Z,15.7
2016-09-28T00:34:02.946Z,15.7
2016-09-28T00:34:12.941Z,15.7
2016-09-28T00:34:22.937Z,15.8
2016-09-28T00:34:32.933Z,15.7
2016-09-28T00:34:42.928Z,15.7
2016-09-28T00:34:52.922Z,15.8
2016-09-28T00:35:02.916Z,15.8
2016-09-28T00:35:12.911Z,15.8
2016-09-28T00:35:22.906Z,15.8
2016-09-28T00:35:32.903Z,15.8
2016-09-28T00:35:42.896Z,15.7
2016-09-28T00:35:52.892Z,15.8
2016-09-28T00:36:02.887Z,15.8
2016-09-28T00:36:12.881Z,15.8
2016-09-28T00:36:22.877Z,15.8
2016-09-28T00:36:32.872Z,15.7
2016-09-28T00:36:42.866Z,15.8
2016-09-28T00:36:52.861Z,15.8
2016-09-28T00:37:02.857Z,15.8
2016-09-28T00:37:12.851Z,15.8
2016-09-28T00:37:22.847Z,15.9
2016-09-28T00:37:32.842Z,15.8
2016-09-28T00:37:42.837Z,15.8
2016-09-28T00:37:52.831Z,15.9
2016-09-28T00:38:02.826Z,15.8
2016-09-28T00:38:12.821Z,15.9
2016-09-28T00:38:22.814Z,15.9
2016-09-28T00:38:32.810Z,15.9
2016-09-28T00:38:42.807Z,15.9
2016-09-28T00:38:52.801Z,15.9
2016-09-28T00:39:02.795Z,15.9
2016-09-28T00:39:12.792Z,15.9
2016-09-28T00:39:22.785Z,15.9
2016-09-28T00:39:32.780Z,15.9
2016-09-28T00:39:42.777Z,15.9
2016-09-28T00:39:52.771Z,16
2016-09-28T00:40:02.766Z,15.9
2016-09-28T00:40:12.760Z,15.9
2016-09-28T00:40:22.757Z,15.9
2016-09-28T00:40:32.751Z,15.9
2016-09-28T00:40:42.746Z,15.8
2016-09-28T00:40:52.741Z,15.9
2016-09-28T00:41:02.736Z,15.9
2016-09-28T00:41:12.731Z,15.9
2016-09-28T00:41:22.725Z,15.9
2016-09-28T00:41:32.719Z,15.9
2016-09-28T00:41:42.717Z,15.9
2016-09-28T00:41:52.709Z,15.9
2016-09-28T00:42:02.704Z,15.9
2016-09-28T00:42:12.700Z,15.9
2016-09-28T00:42:22.695Z,15.9
2016-09-28T00:42:32.691Z,15.9
2016-09-28T00:42:42.686Z,15.9
2016-09-28T00:42:52.680Z,15.8
2016-09-28T00:43:02.675Z,15.9
2016-09-28T00:43:12.670Z,15.8
2016-09-28T00:43:22.670Z,15.8
2016-09-28T00:43:32.661Z,15.8
2016-09-28T00:43:42.654Z,15.8
2016-09-28T00:43:52.650Z,15.7
2016-09-28T00:44:02.645Z,15.9
2016-09-28T00:44:12.639Z,15.8
2016-09-28T00:44:22.634Z,15.9
2016-09-28T00:44:32.629Z,15.8
2016-09-28T00:44:42.623Z,15.8
2016-09-28T00:44:52.620Z,15.8
2016-09-28T00:45:02.615Z,15.8
2016-09-28T00:45:12.610Z,15.8
2016-09-28T00:45:22.605Z,15.8
2016-09-28T00:45:32.599Z,15.8
2016-09-28T00:45:42.595Z,15.8
2016-09-28T00:45:52.590Z,15.8
2016-09-28T00:46:02.584Z,15.8
2016-09-28T00:46:12.579Z,15.8
2016-09-28T00:46:22.573Z,15.8
2016-09-28T00:46:32.568Z,15.8
2016-09-28T00:46:42.565Z,15.9
2016-09-28T00:46:52.559Z,15.8
2016-09-28T00:47:02.553Z,15.8
2016-09-28T00:47:12.548Z,15.7
2016-09-28T00:47:22.543Z,15.8
2016-09-28T00:47:32.538Z,15.8
2016-09-28T00:47:42.534Z,15.8
2016-09-28T00:47:52.529Z,15.8
2016-09-28T00:48:02.525Z,15.8
2016-09-28T00:48:12.519Z,15.8
2016-09-28T00:48:22.515Z,15.8
2016-09-28T00:48:32.509Z,15.8
2016-09-28T00:48:42.503Z,15.8
2016-09-28T00:48:52.500Z,15.8
2016-09-28T00:49:02.493Z,15.8
2016-09-28T00:49:12.489Z,15.8
2016-09-28T00:49:22.485Z,15.8
2016-09-28T00:49:32.478Z,15.9
2016-09-28T00:49:42.474Z,15.8
2016-09-28T00:49:52.467Z,15.8
2016-09-28T00:50:02.462Z,15.8
2016-09-28T00:50:12.458Z,15.9
2016-09-28T00:50:22.454Z,15.8
2016-09-28T00:50:32.449Z,15.8
2016-09-28T00:50:42.445Z,15.7
2016-09-28T00:50:52.438Z,15.8
2016-09-28T00:51:02.433Z,15.9
2016-09-28T00:51:12.428Z,15.8
2016-09-28T00:51:22.424Z,15.9
2016-09-28T00:51:32.419Z,15.8
2016-09-28T00:51:42.412Z,15.9
2016-09-28T00:51:52.408Z,15.9
2016-09-28T00:52:02.403Z,15.9
2016-09-28T00:52:12.398Z,15.9
2016-09-28T00:52:22.393Z,15.8
2016-09-28T00:52:32.387Z,15.9
2016-09-28T00:52:42.382Z,15.9
2016-09-28T00:52:52.379Z,15.9
2016-09-28T00:53:02.373Z,15.8
2016-09-28T00:53:12.369Z,15.9
2016-09-28T00:53:22.364Z,15.9
2016-09-28T00:53:32.359Z,15.9
2016-09-28T00:53:42.359Z,15.8
2016-09-28T00:53:52.348Z,15.9
2016-09-28T00:54:02.343Z,15.8
2016-09-28T00:54:12.339Z,16
2016-09-28T00:54:22.334Z,15.9
2016-09-28T00:54:32.327Z,15.9
2016-09-28T00:54:42.324Z,15.8
2016-09-28T00:54:52.317Z,15.8
2016-09-28T00:55:02.312Z,15.9
2016-09-28T00:55:12.306Z,15.8
2016-09-28T00:55:22.301Z,15.9
2016-09-28T00:55:32.297Z,15.9
2016-09-28T00:55:42.292Z,15.9
2016-09-28T00:55:52.287Z,15.9
2016-09-28T00:56:02.283Z,15.9
2016-09-28T00:56:12.275Z,15.9
2016-09-28T00:56:22.272Z,15.9
2016-09-28T00:56:32.266Z,15.7
2016-09-28T00:56:42.261Z,15.9
2016-09-28T00:56:52.256Z,15.9
2016-09-28T00:57:02.251Z,15.7
2016-09-28T00:57:12.245Z,15.8
2016-09-28T00:57:22.241Z,15.8
2016-09-28T00:57:32.236Z,15.8
2016-09-28T00:57:42.232Z,15.8
2016-09-28T00:57:52.226Z,15.7
2016-09-28T00:58:02.221Z,15.7
2016-09-28T00:58:12.217Z,15.8
2016-09-28T00:58:22.212Z,15.8
2016-09-28T00:58:32.207Z,15.8
2016-09-28T00:58:42.202Z,15.8
2016-09-28T00:58:52.196Z,15.8
2016-09-28T00:59:02.191Z,15.8
2016-09-28T00:59:12.186Z,15.8
2016-09-28T00:59:22.180Z,15.9
2016-09-28T00:59:32.176Z,15.8
2016-09-28T00:59:42.171Z,15.8
2016-09-28T00:59:52.165Z,15.8
2016-09-28T01:00:02.161Z,15.8
2016-09-28T01:00:12.156Z,15.8
2016-09-28T01:00:22.157Z,15.8
2016-09-28T01:00:32.148Z,15.8
2016-09-28T01:00:42.141Z,15.8
2016-09-28T01:00:52.136Z,15.8
2016-09-28T01:01:02.131Z,15.8
2016-09-28T01:01:12.127Z,15.8
2016-09-28T01:01:22.121Z,15.8
2016-09-28T01:01:32.116Z,15.8
2016-09-28T01:01:42.110Z,15.8
2016-09-28T01:01:52.106Z,15.8
2016-09-28T01:02:02.101Z,15.8
2016-09-28T01:02:12.096Z,15.8
2016-09-28T01:02:22.090Z,15.8
2016-09-28T01:02:32.086Z,15.8
2016-09-28T01:02:42.081Z,15.7
2016-09-28T01:02:52.075Z,15.8
2016-09-28T01:03:02.071Z,15.7
2016-09-28T01:03:12.066Z,15.8
2016-09-28T01:03:22.059Z,15.8
2016-09-28T01:03:32.055Z,15.8
2016-09-28T01:03:42.050Z,15.8
2016-09-28T01:03:52.045Z,15.7
2016-09-28T01:04:02.040Z,15.8
2016-09-28T01:04:12.036Z,15.8
2016-09-28T01:04:22.031Z,15.7
2016-09-28T01:04:32.025Z,15.8
2016-09-28T01:04:42.020Z,15.7
2016-09-28T01:04:52.015Z,15.7
2016-09-28T01:05:02.010Z,15.8
2016-09-28T01:05:12.006Z,15.8
2016-09-28T01:05:21.998Z,15.8
2016-09-28T01:05:31.993Z,15.8
2016-09-28T01:05:41.990Z,15.8
2016-09-28T01:05:51.985Z,15.8
2016-09-28T01:06:01.978Z,15.7
2016-09-28T01:06:11.976Z,15.8
2016-09-28T01:06:21.969Z,15.8
2016-09-28T01:06:31.965Z,15.7
2016-09-28T01:06:41.960Z,15.8
2016-09-28T01:06:51.954Z,15.7
2016-09-28T01:07:01.949Z,15.8
2016-09-28T01:07:11.942Z,15.7
2016-09-28T01:07:21.939Z,15.7
2016-09-28T01:07:31.935Z,15.7
2016-09-28T01:07:41.927Z,15.6
2016-09-28T01:07:51.923Z,15.6
2016-09-28T01:08:01.920Z,15.6
2016-09-28T01:08:11.914Z,15.7
2016-09-28T01:08:21.908Z,15.6
2016-09-28T01:08:31.902Z,15.7
2016-09-28T01:08:41.897Z,15.7
2016-09-28T01:08:51.894Z,15.7
2016-09-28T01:09:01.888Z,15.7
2016-09-28T01:09:11.884Z,15.7
2016-09-28T01:09:21.879Z,15.7
2016-09-28T01:09:31.873Z,15.7
2016-09-28T01:09:41.869Z,15.7
2016-09-28T01:09:51.863Z,15.7
2016-09-28T01:10:01.859Z,15.6
2016-09-28T01:10:11.854Z,15.7
2016-09-28T01:10:21.847Z,15.7
2016-09-28T01:10:31.843Z,15.7
2016-09-28T01:10:41.839Z,15.7
2016-09-28T01:10:51.832Z,15.7
2016-09-28T01:11:01.828Z,15.6
2016-09-28T01:11:11.821Z,15.7
2016-09-28T01:11:21.817Z,15.7
2016-09-28T01:11:31.812Z,15.7
2016-09-28T01:11:41.808Z,15.6
2016-09-28T01:11:51.802Z,15.7
2016-09-28T01:12:01.798Z,15.7
2016-09-28T01:12:11.791Z,15.7
2016-09-28T01:12:21.787Z,15.7
2016-09-28T01:12:31.781Z,15.7
2016-09-28T01:12:41.778Z,15.7
2016-09-28T01:12:51.772Z,15.7
2016-09-28T01:13:01.766Z,15.7
2016-09-28T01:13:11.761Z,15.7
2016-09-28T01:13:21.758Z,15.7
2016-09-28T01:13:31.751Z,15.7
2016-09-28T01:13:41.747Z,15.7
2016-09-28T01:13:51.740Z,15.7
2016-09-28T01:14:01.736Z,15.7
2016-09-28T01:14:11.731Z,15.7
2016-09-28T01:14:21.726Z,15.8
2016-09-28T01:14:31.723Z,15.7
2016-09-28T01:14:41.717Z,15.7
2016-09-28T01:14:51.712Z,15.7
2016-09-28T01:15:01.707Z,15.7
2016-09-28T01:15:11.701Z,15.7
2016-09-28T01:15:21.695Z,15.7
2016-09-28T01:15:31.691Z,15.7
2016-09-28T01:15:41.686Z,15.7
2016-09-28T01:15:51.681Z,15.7
2016-09-28T01:16:01.676Z,15.7
2016-09-28T01:16:11.671Z,15.7
2016-09-28T01:16:21.666Z,15.8
2016-09-28T01:16:31.661Z,15.8
2016-09-28T01:16:41.655Z,15.7
2016-09-28T01:16:51.650Z,15.6
2016-09-28T01:17:01.645Z,15.7
2016-09-28T01:17:11.641Z,15.7
2016-09-28T01:17:21.636Z,15.7
2016-09-28T01:17:31.632Z,15.7
2016-09-28T01:17:41.626Z,15.8
2016-09-28T01:17:51.621Z,15.8
2016-09-28T01:18:01.615Z,15.8
2016-09-28T01:18:11.611Z,15.7
2016-09-28T01:18:21.605Z,15.7
2016-09-28T01:18:31.599Z,15.8
2016-09-28T01:18:41.594Z,15.7
2016-09-28T01:18:51.589Z,15.8
2016-09-28T01:19:01.584Z,15.8
2016-09-28T01:19:11.579Z,15.7
2016-09-28T01:19:21.574Z,15.9
2016-09-28T01:19:31.570Z,15.9
2016-09-28T01:19:41.565Z,15.9
2016-09-28T01:19:51.560Z,15.7
2016-09-28T01:20:01.555Z,15.9
2016-09-28T01:20:11.550Z,15.8
2016-09-28T01:20:21.545Z,15.9
2016-09-28T01:20:31.540Z,15.9
2016-09-28T01:20:41.534Z,15.8
2016-09-28T01:20:51.536Z,15.9
2016-09-28T01:21:01.523Z,15.8
2016-09-28T01:21:11.519Z,15.8
2016-09-28T01:21:21.515Z,15.8
2016-09-28T01:21:31.509Z,15.9
2016-09-28T01:21:41.503Z,15.9
2016-09-28T01:21:51.498Z,15.8
2016-09-28T01:22:01.494Z,15.8
2016-09-28T01:22:11.489Z,15.9
2016-09-28T01:22:21.485Z,15.9
2016-09-28T01:22:31.480Z,15.9
2016-09-28T01:22:41.475Z,15.9
2016-09-28T01:22:51.475Z,15.9
2016-09-28T01:23:01.465Z,15.9
2016-09-28T01:23:11.459Z,15.9
2016-09-28T01:23:21.453Z,15.9
2016-09-28T01:23:31.448Z,15.9
2016-09-28T01:23:41.443Z,15.9
2016-09-28T01:23:51.438Z,15.9
2016-09-28T01:24:01.433Z,15.8
2016-09-28T01:24:11.429Z,15.9
2016-09-28T01:24:21.423Z,15.9
2016-09-28T01:24:31.417Z,15.9
2016-09-28T01:24:41.413Z,15.8
2016-09-28T01:24:51.408Z,15.9
2016-09-28T01:25:01.403Z,15.9
2016-09-28T01:25:11.397Z,15.9
2016-09-28T01:25:21.394Z,15.8
2016-09-28T01:25:31.388Z,15.9
2016-09-28T01:25:41.384Z,15.8
2016-09-28T01:25:51.377Z,15.9
2016-09-28T01:26:01.373Z,15.9
2016-09-28T01:26:11.368Z,15.8
2016-09-28T01:26:21.362Z,15.9
2016-09-28T01:26:31.358Z,15.9
2016-09-28T01:26:41.352Z,15.9
2016-09-28T01:26:51.346Z,15.9
2016-09-28T01:27:01.342Z,15.9
2016-09-28T01:27:11.337Z,15.9
2016-09-28T01:27:21.332Z,15.9
2016-09-28T01:27:31.328Z,15.8
2016-09-28T01:27:41.323Z,15.9
2016-09-28T01:27:51.319Z,15.9
2016-09-28T01:28:01.314Z,15.9
2016-09-28T01:28:11.307Z,15.9
2016-09-28T01:28:21.303Z,15.9
2016-09-28T01:28:31.298Z,15.9
2016-09-28T01:28:41.293Z,16
2016-09-28T01:28:51.288Z,15.9
2016-09-28T01:29:01.281Z,15.9
2016-09-28T01:29:11.278Z,15.9
2016-09-28T01:29:21.272Z,15.9
2016-09-28T01:29:31.266Z,15.9
2016-09-28T01:29:41.277Z,16
2016-09-28T01:29:51.256Z,15.9
2016-09-28T01:30:01.252Z,15.9
2016-09-28T01:30:11.247Z,15.9
2016-09-28T01:30:21.242Z,15.9
2016-09-28T01:30:31.237Z,16
2016-09-28T01:30:41.237Z,15.9
2016-09-28T01:30:51.228Z,16
2016-09-28T01:31:01.221Z,16
2016-09-28T01:31:11.216Z,15.9
2016-09-28T01:31:21.212Z,16
2016-09-28T01:31:31.207Z,15.9
2016-09-28T01:31:41.200Z,16
2016-09-28T01:31:51.197Z,16
2016-09-28T01:32:01.192Z,16
2016-09-28T01:32:11.187Z,16
2016-09-28T01:32:21.181Z,16
2016-09-28T01:32:31.175Z,16
2016-09-28T01:32:41.171Z,15.9
2016-09-28T01:32:51.166Z,16
2016-09-28T01:33:01.161Z,16
2016-09-28T01:33:11.156Z,16
2016-09-28T01:33:21.151Z,15.9
2016-09-28T01:33:31.146Z,16
2016-09-28T01:33:41.142Z,16
2016-09-28T01:33:51.135Z,16
2016-09-28T01:34:01.133Z,16
2016-09-28T01:34:11.127Z,16
2016-09-28T01:34:21.120Z,16
2016-09-28T01:34:31.115Z,16
2016-09-28T01:34:41.111Z,16
2016-09-28T01:34:51.104Z,16
2016-09-28T01:35:01.100Z,16
2016-09-28T01:35:11.095Z,16
2016-09-28T01:35:21.090Z,16.1
2016-09-28T01:35:31.088Z,16.1
2016-09-28T01:35:41.081Z,16.1
2016-09-28T01:35:51.076Z,16.1
2016-09-28T01:36:01.071Z,16.1
2016-09-28T01:36:11.065Z,16.1
2016-09-28T01:36:21.061Z,16.1
2016-09-28T01:36:31.055Z,16.1
2016-09-28T01:36:41.051Z,16.1
2016-09-28T01:36:51.045Z,16.1
2016-09-28T01:37:01.040Z,16.1
2016-09-28T01:37:11.035Z,16.1
2016-09-28T01:37:21.029Z,16.1
2016-09-28T01:37:31.026Z,16.1
2016-09-28T01:37:41.019Z,16.1
2016-09-28T01:37:51.013Z,16.1
2016-09-28T01:38:01.010Z,16.1
2016-09-28T01:38:11.006Z,16.2
2016-09-28T01:38:21.000Z,16.1
2016-09-28T01:38:30.995Z,16.1
2016-09-28T01:38:40.991Z,16.1
2016-09-28T01:38:50.985Z,16.2
2016-09-28T01:39:00.980Z,16.2
2016-09-28T01:39:10.975Z,16.1
2016-09-28T01:39:20.970Z,16.1
2016-09-28T01:39:30.965Z,16.1
2016-09-28T01:39:40.958Z,16
2016-09-28T01:39:50.955Z,16.1
2016-09-28T01:40:00.951Z,16.1
2016-09-28T01:40:10.945Z,16.2
2016-09-28T01:40:20.939Z,16.2
2016-09-28T01:40:30.934Z,16.1
2016-09-28T01:40:40.928Z,16.2
2016-09-28T01:40:50.923Z,16.2
2016-09-28T01:41:00.918Z,16.1
2016-09-28T01:41:10.915Z,16.2
2016-09-28T01:41:20.910Z,16.1
2016-09-28T01:41:30.905Z,16.1
2016-09-28T01:41:40.900Z,16.2
2016-09-28T01:41:50.894Z,16.1
2016-09-28T01:42:00.890Z,16.2
2016-09-28T01:42:10.885Z,16.2
2016-09-28T01:42:20.878Z,16.2
2016-09-28T01:42:30.874Z,16.2
2016-09-28T01:42:40.870Z,16.2
2016-09-28T01:42:50.863Z,16.2
2016-09-28T01:43:00.858Z,16.2
2016-09-28T01:43:10.853Z,16.1
2016-09-28T01:43:20.849Z,16.2
2016-09-28T01:43:30.843Z,16.2
2016-09-28T01:43:40.843Z,16.2
2016-09-28T01:43:50.835Z,16.2
2016-09-28T01:44:00.829Z,16.2
2016-09-28T01:44:10.824Z,16.2
2016-09-28T01:44:20.819Z,16.2
2016-09-28T01:44:30.812Z,16.2
2016-09-28T01:44:40.809Z,16.2
2016-09-28T01:44:50.803Z,16.2
2016-09-28T01:45:00.797Z,16.2
2016-09-28T01:45:10.794Z,16.1
2016-09-28T01:45:20.787Z,16.1
2016-09-28T01:45:30.783Z,16.3
2016-09-28T01:45:40.777Z,16.3
2016-09-28T01:45:50.772Z,16.2
2016-09-28T01:46:00.767Z,16.2
2016-09-28T01:46:10.764Z,16.3
2016-09-28T01:46:20.761Z,16.2
2016-09-28T01:46:30.753Z,16.2
2016-09-28T01:46:40.750Z,16.2
2016-09-28T01:46:50.743Z,16.2
2016-09-28T01:47:00.738Z,16.2
2016-09-28T01:47:10.731Z,16.2
2016-09-28T01:47:20.727Z,16.2
2016-09-28T01:47:30.722Z,16.3
2016-09-28T01:47:40.716Z,16.2
2016-09-28T01:47:50.713Z,16.2
2016-09-28T01:48:00.709Z,16.2
2016-09-28T01:48:10.703Z,16.3
2016-09-28T01:48:20.697Z,16.3
2016-09-28T01:48:30.693Z,16.3
2016-09-28T01:48:40.687Z,16.2
2016-09-28T01:48:50.682Z,16.2
2016-09-28T01:49:00.677Z,16.2
2016-09-28T01:49:10.672Z,16.2
2016-09-28T01:49:20.667Z,16.2
2016-09-28T01:49:30.663Z,16.2
2016-09-28T01:49:40.658Z,16.2
2016-09-28T01:49:50.651Z,16.2
2016-09-28T01:50:00.648Z,16.2
2016-09-28T01:50:10.642Z,16.2
2016-09-28T01:50:20.636Z,16.3
2016-09-28T01:50:30.630Z,16.2
2016-09-28T01:50:40.629Z,16.3
2016-09-28T01:50:50.621Z,16.2
2016-09-28T01:51:00.618Z,16.2
2016-09-28T01:51:10.610Z,16.2
2016-09-28T01:51:20.608Z,16.2
2016-09-28T01:51:30.601Z,16.2
2016-09-28T01:51:40.597Z,16.2
2016-09-28T01:51:50.592Z,16.3
2016-09-28T01:52:00.588Z,16.2
2016-09-28T01:52:10.586Z,16.3
2016-09-28T01:52:20.578Z,16.3
2016-09-28T01:52:30.571Z,16.2
2016-09-28T01:52:40.567Z,16.2
2016-09-28T01:52:50.562Z,16.2
2016-09-28T01:53:00.557Z,16.2
2016-09-28T01:53:10.550Z,16.3
2016-09-28T01:53:20.548Z,16.2
2016-09-28T01:53:30.540Z,16.2
2016-09-28T01:53:40.536Z,16.2
2016-09-28T01:53:50.530Z,16.2
2016-09-28T01:54:00.525Z,16.2
2016-09-28T01:54:10.520Z,16.3
2016-09-28T01:54:20.516Z,16.3
2016-09-28T01:54:30.512Z,16.2
2016-09-28T01:54:40.508Z,16.2
2016-09-28T01:54:50.502Z,16.3
2016-09-28T01:55:00.497Z,16.2
2016-09-28T01:55:10.490Z,16.3
2016-09-28T01:55:20.486Z,16.3
2016-09-28T01:55:30.481Z,16.3
2016-09-28T01:55:40.476Z,16.3
2016-09-28T01:55:50.471Z,16.3
2016-09-28T01:56:00.467Z,16.3
2016-09-28T01:56:10.460Z,16.3
2016-09-28T01:56:20.456Z,16.3
2016-09-28T01:56:30.450Z,16.3
2016-09-28T01:56:40.445Z,16.2
2016-09-28T01:56:50.440Z,16.3
2016-09-28T01:57:00.436Z,16.3
2016-09-28T01:57:10.431Z,16.2
2016-09-28T01:57:20.426Z,16.3
2016-09-28T01:57:30.427Z,16.3
2016-09-28T01:57:40.416Z,16.3
2016-09-28T01:57:50.411Z,16.3
2016-09-28T01:58:00.406Z,16.4
2016-09-28T01:58:10.401Z,16.4
2016-09-28T01:58:20.395Z,16.3
2016-09-28T01:58:30.390Z,16.3
2016-09-28T01:58:40.386Z,16.3
2016-09-28T01:58:50.379Z,16.4
2016-09-28T01:59:00.375Z,16.4
2016-09-28T01:59:10.376Z,16.3
2016-09-28T01:59:20.364Z,16.4
2016-09-28T01:59:30.361Z,16.3
2016-09-28T01:59:40.355Z,16.4
2016-09-28T01:59:50.351Z,16.3
2016-09-28T02:00:00.346Z,16.3
2016-09-28T02:00:10.340Z,16.4
2016-09-28T02:00:20.336Z,16.4
2016-09-28T02:00:30.330Z,16.3
2016-09-28T02:00:40.325Z,16.4
2016-09-28T02:00:50.320Z,16.3
2016-09-28T02:01:00.315Z,16.4
2016-09-28T02:01:10.310Z,16.4
2016-09-28T02:01:20.305Z,16.3
2016-09-28T02:01:30.299Z,16.4
2016-09-28T02:01:40.294Z,16.3
2016-09-28T02:01:50.288Z,16.3
2016-09-28T02:02:00.285Z,16.2
2016-09-28T02:02:10.280Z,16.3
2016-09-28T02:02:20.275Z,16.3
2016-09-28T02:02:30.276Z,16.3
2016-09-28T02:02:40.266Z,16.3
2016-09-28T02:02:50.260Z,16.2
2016-09-28T02:03:00.256Z,16.3
2016-09-28T02:03:10.248Z,16.3
2016-09-28T02:03:20.245Z,16.3
2016-09-28T02:03:30.240Z,16.3
2016-09-28T02:03:40.234Z,16.3
2016-09-28T02:03:50.229Z,16.4
2016-09-28T02:04:00.226Z,16.4
2016-09-28T02:04:16.390Z,16.4
2016-09-28T02:04:26.369Z,16.3
2016-09-28T02:04:36.364Z,16.4
2016-09-28T02:04:46.359Z,16.3
2016-09-28T02:04:56.355Z,16.3
2016-09-28T02:05:06.349Z,16.2
2016-09-28T02:05:16.345Z,16.3
2016-09-28T02:05:26.340Z,16.3
2016-09-28T02:05:36.337Z,16.4
2016-09-28T02:05:46.330Z,16.3
2016-09-28T02:05:56.325Z,16.3
2016-09-28T02:06:06.321Z,16.3
2016-09-28T02:06:16.317Z,16.3
2016-09-28T02:06:26.310Z,16.3
2016-09-28T02:06:36.308Z,16.3
2016-09-28T02:06:46.300Z,16.3
2016-09-28T02:06:56.294Z,16.4
2016-09-28T02:07:06.287Z,16.4
2016-09-28T02:07:16.284Z,16.4
2016-09-28T02:07:26.280Z,16.3
2016-09-28T02:07:36.274Z,16.3
2016-09-28T02:07:46.270Z,16.3
2016-09-28T02:07:56.265Z,16.3
2016-09-28T02:08:06.259Z,16.4
2016-09-28T02:08:16.255Z,16.3
2016-09-28T02:08:26.249Z,16.4
2016-09-28T02:08:36.245Z,16.3
2016-09-28T02:08:46.240Z,16.2
2016-09-28T02:08:56.235Z,16.3
2016-09-28T02:09:06.230Z,16.3
2016-09-28T02:09:16.224Z,16.3
2016-09-28T02:09:26.218Z,16.4
2016-09-28T02:09:36.215Z,16.3
2016-09-28T02:09:46.208Z,16.4
2016-09-28T02:09:56.203Z,16.3
2016-09-28T02:10:06.199Z,16.3
2016-09-28T02:10:16.192Z,16.3
2016-09-28T02:10:26.189Z,16.4
2016-09-28T02:10:36.183Z,16.4
2016-09-28T02:10:46.179Z,16.4
2016-09-28T02:10:56.174Z,16.3
2016-09-28T02:11:06.169Z,16.4
2016-09-28T02:11:16.164Z,16.3
2016-09-28T02:11:26.159Z,16.4
2016-09-28T02:11:36.153Z,16.3
2016-09-28T02:11:46.149Z,16.4
2016-09-28T02:11:56.142Z,16.4
2016-09-28T02:12:06.137Z,16.3
2016-09-28T02:12:16.132Z,16.3
2016-09-28T02:12:26.128Z,16.3
2016-09-28T02:12:36.124Z,16.3
2016-09-28T02:12:46.117Z,16.3
2016-09-28T02:12:56.111Z,16.3
2016-09-28T02:13:06.108Z,16.3
2016-09-28T02:13:16.104Z,16.3
2016-09-28T02:13:26.099Z,16.4